sensor_id;sensor_type;location;lat;lon;timestamp;P1;durP1;ratioP1;P2;durP2;ratioP2
20230;SDS011;10274;49.022;9.338;2022-10-17T00:02:21;0.80;;;0.67;;
20230;SDS011;10274;49.022;9.338;2022-10-17T00:04:47;0.60;;;0.60;;
20230;SDS011;10274;49.022;9.338;2022-10-17T00:07:14;0.70;;;0.70;;
20230;SDS011;10274;49.022;9.338;2022-10-17T00:09:41;1.00;;;0.90;;
20230;SDS011;10274;49.022;9.338;2022-10-17T00:12:08;0.70;;;0.70;;
20230;SDS011;10274;49.022;9.338;2022-10-17T00:14:37;0.70;;;0.70;;
20230;SDS011;10274;49.022;9.338;2022-10-17T00:17:04;0.50;;;0.50;;
20230;SDS011;10274;49.022;9.338;2022-10-17T00:19:31;0.80;;;0.80;;
20230;SDS011;10274;49.022;9.338;2022-10-17T00:21:58;1.00;;;0.90;;
20230;SDS011;10274;49.022;9.338;2022-10-17T00:24:24;0.77;;;0.77;;
20230;SDS011;10274;49.022;9.338;2022-10-17T00:26:51;0.73;;;0.73;;
20230;SDS011;10274;49.022;9.338;2022-10-17T00:29:18;0.80;;;0.67;;
20230;SDS011;10274;49.022;9.338;2022-10-17T00:31:46;0.80;;;0.80;;
20230;SDS011;10274;49.022;9.338;2022-10-17T00:34:12;0.77;;;0.70;;
20230;SDS011;10274;49.022;9.338;2022-10-17T00:36:39;0.73;;;0.73;;
20230;SDS011;10274;49.022;9.338;2022-10-17T00:39:06;0.73;;;0.73;;
20230;SDS011;10274;49.022;9.338;2022-10-17T00:41:34;1.20;;;0.73;;
20230;SDS011;10274;49.022;9.338;2022-10-17T00:44:01;0.40;;;0.40;;
20230;SDS011;10274;49.022;9.338;2022-10-17T00:46:30;1.07;;;0.87;;
20230;SDS011;10274;49.022;9.338;2022-10-17T00:48:59;0.50;;;0.50;;
20230;SDS011;10274;49.022;9.338;2022-10-17T00:51:32;0.80;;;0.80;;
20230;SDS011;10274;49.022;9.338;2022-10-17T00:54:02;0.70;;;0.70;;
20230;SDS011;10274;49.022;9.338;2022-10-17T00:56:29;0.70;;;0.70;;
20230;SDS011;10274;49.022;9.338;2022-10-17T00:58:57;0.87;;;0.83;;
20230;SDS011;10274;49.022;9.338;2022-10-17T01:01:24;0.50;;;0.50;;
20230;SDS011;10274;49.022;9.338;2022-10-17T01:03:51;1.17;;;1.10;;
20230;SDS011;10274;49.022;9.338;2022-10-17T01:06:19;0.77;;;0.70;;
20230;SDS011;10274;49.022;9.338;2022-10-17T01:08:46;0.97;;;0.67;;
20230;SDS011;10274;49.022;9.338;2022-10-17T01:11:18;0.77;;;0.60;;
20230;SDS011;10274;49.022;9.338;2022-10-17T01:13:51;0.80;;;0.80;;
20230;SDS011;10274;49.022;9.338;2022-10-17T01:16:25;0.50;;;0.50;;
20230;SDS011;10274;49.022;9.338;2022-10-17T01:19:01;0.50;;;0.50;;
20230;SDS011;10274;49.022;9.338;2022-10-17T01:21:42;0.80;;;0.77;;
20230;SDS011;10274;49.022;9.338;2022-10-17T01:24:28;0.53;;;0.53;;
20230;SDS011;10274;49.022;9.338;2022-10-17T01:27:14;0.57;;;0.50;;
20230;SDS011;10274;49.022;9.338;2022-10-17T01:33:17;0.80;;;0.80;;
20230;SDS011;10274;49.022;9.338;2022-10-17T01:35:53;1.07;;;0.63;;
20230;SDS011;10274;49.022;9.338;2022-10-17T01:38:24;0.77;;;0.77;;
20230;SDS011;10274;49.022;9.338;2022-10-17T01:40:59;1.93;;;0.60;;
20230;SDS011;10274;49.022;9.338;2022-10-17T01:43:30;1.00;;;0.77;;
20230;SDS011;10274;49.022;9.338;2022-10-17T01:46:05;0.33;;;0.33;;
20230;SDS011;10274;49.022;9.338;2022-10-17T01:48:38;0.50;;;0.50;;
20230;SDS011;10274;49.022;9.338;2022-10-17T01:51:08;1.27;;;0.83;;
20230;SDS011;10274;49.022;9.338;2022-10-17T01:53:39;0.90;;;0.67;;
20230;SDS011;10274;49.022;9.338;2022-10-17T01:56:09;0.77;;;0.70;;
20230;SDS011;10274;49.022;9.338;2022-10-17T01:58:40;0.93;;;0.90;;
20230;SDS011;10274;49.022;9.338;2022-10-17T02:01:12;0.70;;;0.70;;
20230;SDS011;10274;49.022;9.338;2022-10-17T02:03:41;0.60;;;0.60;;
20230;SDS011;10274;49.022;9.338;2022-10-17T02:06:10;1.03;;;0.60;;
20230;SDS011;10274;49.022;9.338;2022-10-17T02:08:41;0.60;;;0.60;;
20230;SDS011;10274;49.022;9.338;2022-10-17T02:11:10;0.57;;;0.57;;
20230;SDS011;10274;49.022;9.338;2022-10-17T02:13:43;0.70;;;0.70;;
20230;SDS011;10274;49.022;9.338;2022-10-17T02:16:27;0.93;;;0.90;;
20230;SDS011;10274;49.022;9.338;2022-10-17T02:21:50;0.73;;;0.73;;
20230;SDS011;10274;49.022;9.338;2022-10-17T02:24:24;0.70;;;0.70;;
20230;SDS011;10274;49.022;9.338;2022-10-17T02:26:59;0.70;;;0.60;;
20230;SDS011;10274;49.022;9.338;2022-10-17T02:29:32;0.60;;;0.60;;
20230;SDS011;10274;49.022;9.338;2022-10-17T02:32:03;0.60;;;0.60;;
20230;SDS011;10274;49.022;9.338;2022-10-17T02:34:35;0.57;;;0.57;;
20230;SDS011;10274;49.022;9.338;2022-10-17T02:37:04;0.87;;;0.60;;
20230;SDS011;10274;49.022;9.338;2022-10-17T02:39:33;0.90;;;0.90;;
20230;SDS011;10274;49.022;9.338;2022-10-17T02:42:04;0.70;;;0.70;;
20230;SDS011;10274;49.022;9.338;2022-10-17T02:44:32;0.57;;;0.57;;
20230;SDS011;10274;49.022;9.338;2022-10-17T02:47:00;0.87;;;0.60;;
20230;SDS011;10274;49.022;9.338;2022-10-17T02:49:33;0.53;;;0.53;;
20230;SDS011;10274;49.022;9.338;2022-10-17T02:52:06;0.80;;;0.60;;
20230;SDS011;10274;49.022;9.338;2022-10-17T02:54:38;0.57;;;0.53;;
20230;SDS011;10274;49.022;9.338;2022-10-17T02:57:09;0.60;;;0.47;;
20230;SDS011;10274;49.022;9.338;2022-10-17T02:59:41;0.30;;;0.30;;
20230;SDS011;10274;49.022;9.338;2022-10-17T03:02:10;0.60;;;0.60;;
20230;SDS011;10274;49.022;9.338;2022-10-17T03:04:38;0.70;;;0.70;;
20230;SDS011;10274;49.022;9.338;2022-10-17T03:07:08;0.50;;;0.50;;
20230;SDS011;10274;49.022;9.338;2022-10-17T03:09:34;0.60;;;0.60;;
20230;SDS011;10274;49.022;9.338;2022-10-17T03:12:01;0.60;;;0.60;;
20230;SDS011;10274;49.022;9.338;2022-10-17T03:14:28;0.60;;;0.60;;
20230;SDS011;10274;49.022;9.338;2022-10-17T03:16:55;0.37;;;0.37;;
20230;SDS011;10274;49.022;9.338;2022-10-17T03:19:22;0.67;;;0.57;;
20230;SDS011;10274;49.022;9.338;2022-10-17T03:21:50;0.80;;;0.60;;
20230;SDS011;10274;49.022;9.338;2022-10-17T03:24:16;0.60;;;0.60;;
20230;SDS011;10274;49.022;9.338;2022-10-17T03:26:43;0.57;;;0.57;;
20230;SDS011;10274;49.022;9.338;2022-10-17T03:29:10;1.00;;;0.70;;
20230;SDS011;10274;49.022;9.338;2022-10-17T03:31:38;0.70;;;0.70;;
20230;SDS011;10274;49.022;9.338;2022-10-17T03:34:05;1.13;;;0.53;;
20230;SDS011;10274;49.022;9.338;2022-10-17T03:36:31;0.57;;;0.57;;
20230;SDS011;10274;49.022;9.338;2022-10-17T03:38:59;0.67;;;0.60;;
20230;SDS011;10274;49.022;9.338;2022-10-17T03:41:26;2.90;;;0.80;;
20230;SDS011;10274;49.022;9.338;2022-10-17T03:43:53;0.70;;;0.70;;
20230;SDS011;10274;49.022;9.338;2022-10-17T03:46:20;1.30;;;0.53;;
20230;SDS011;10274;49.022;9.338;2022-10-17T03:48:46;0.57;;;0.57;;
20230;SDS011;10274;49.022;9.338;2022-10-17T03:51:13;0.70;;;0.70;;
20230;SDS011;10274;49.022;9.338;2022-10-17T03:53:40;0.67;;;0.60;;
20230;SDS011;10274;49.022;9.338;2022-10-17T03:56:09;0.60;;;0.57;;
20230;SDS011;10274;49.022;9.338;2022-10-17T03:58:36;0.73;;;0.73;;
20230;SDS011;10274;49.022;9.338;2022-10-17T04:01:04;1.03;;;0.90;;
20230;SDS011;10274;49.022;9.338;2022-10-17T04:03:31;1.13;;;0.73;;
20230;SDS011;10274;49.022;9.338;2022-10-17T04:05:58;0.80;;;0.80;;
20230;SDS011;10274;49.022;9.338;2022-10-17T04:08:25;0.67;;;0.67;;
20230;SDS011;10274;49.022;9.338;2022-10-17T04:10:52;0.60;;;0.60;;
20230;SDS011;10274;49.022;9.338;2022-10-17T04:13:24;0.60;;;0.53;;
20230;SDS011;10274;49.022;9.338;2022-10-17T04:15:54;0.77;;;0.63;;
20230;SDS011;10274;49.022;9.338;2022-10-17T04:18:21;1.07;;;0.67;;
20230;SDS011;10274;49.022;9.338;2022-10-17T04:20:48;0.70;;;0.70;;
20230;SDS011;10274;49.022;9.338;2022-10-17T04:23:15;4.77;;;2.10;;
20230;SDS011;10274;49.022;9.338;2022-10-17T04:25:42;1.43;;;1.20;;
20230;SDS011;10274;49.022;9.338;2022-10-17T04:28:09;1.33;;;1.07;;
20230;SDS011;10274;49.022;9.338;2022-10-17T04:30:37;1.77;;;1.67;;
20230;SDS011;10274;49.022;9.338;2022-10-17T04:33:04;2.00;;;1.90;;
20230;SDS011;10274;49.022;9.338;2022-10-17T04:35:31;1.80;;;1.70;;
20230;SDS011;10274;49.022;9.338;2022-10-17T04:37:58;0.60;;;0.60;;
20230;SDS011;10274;49.022;9.338;2022-10-17T04:40:24;1.10;;;0.90;;
20230;SDS011;10274;49.022;9.338;2022-10-17T04:42:51;0.60;;;0.60;;
20230;SDS011;10274;49.022;9.338;2022-10-17T04:45:18;2.07;;;1.10;;
20230;SDS011;10274;49.022;9.338;2022-10-17T04:47:46;1.13;;;0.83;;
20230;SDS011;10274;49.022;9.338;2022-10-17T04:50:13;0.67;;;0.67;;
20230;SDS011;10274;49.022;9.338;2022-10-17T04:52:40;0.53;;;0.53;;
20230;SDS011;10274;49.022;9.338;2022-10-17T04:55:07;0.77;;;0.77;;
20230;SDS011;10274;49.022;9.338;2022-10-17T04:57:34;0.60;;;0.60;;
20230;SDS011;10274;49.022;9.338;2022-10-17T05:00:02;2.00;;;0.67;;
20230;SDS011;10274;49.022;9.338;2022-10-17T05:02:29;0.50;;;0.50;;
20230;SDS011;10274;49.022;9.338;2022-10-17T05:04:57;0.80;;;0.80;;
20230;SDS011;10274;49.022;9.338;2022-10-17T05:07:24;1.37;;;1.10;;
20230;SDS011;10274;49.022;9.338;2022-10-17T05:09:50;0.67;;;0.67;;
20230;SDS011;10274;49.022;9.338;2022-10-17T05:12:17;0.57;;;0.57;;
20230;SDS011;10274;49.022;9.338;2022-10-17T05:14:44;1.53;;;1.07;;
20230;SDS011;10274;49.022;9.338;2022-10-17T05:17:10;0.77;;;0.70;;
20230;SDS011;10274;49.022;9.338;2022-10-17T05:19:37;1.90;;;1.50;;
20230;SDS011;10274;49.022;9.338;2022-10-17T05:22:05;1.73;;;1.40;;
20230;SDS011;10274;49.022;9.338;2022-10-17T05:24:32;5.63;;;3.70;;
20230;SDS011;10274;49.022;9.338;2022-10-17T05:26:59;1.93;;;1.77;;
20230;SDS011;10274;49.022;9.338;2022-10-17T05:29:25;0.83;;;0.80;;
20230;SDS011;10274;49.022;9.338;2022-10-17T05:31:52;0.70;;;0.70;;
20230;SDS011;10274;49.022;9.338;2022-10-17T05:34:19;0.97;;;0.73;;
20230;SDS011;10274;49.022;9.338;2022-10-17T05:36:46;1.27;;;0.80;;
20230;SDS011;10274;49.022;9.338;2022-10-17T05:39:14;3.03;;;2.20;;
20230;SDS011;10274;49.022;9.338;2022-10-17T05:41:43;1.93;;;1.57;;
20230;SDS011;10274;49.022;9.338;2022-10-17T05:44:10;2.00;;;1.80;;
20230;SDS011;10274;49.022;9.338;2022-10-17T05:46:37;2.80;;;2.20;;
20230;SDS011;10274;49.022;9.338;2022-10-17T05:49:04;2.30;;;1.70;;
20230;SDS011;10274;49.022;9.338;2022-10-17T05:51:32;1.70;;;1.50;;
20230;SDS011;10274;49.022;9.338;2022-10-17T05:53:59;0.70;;;0.70;;
20230;SDS011;10274;49.022;9.338;2022-10-17T05:56:27;1.17;;;1.07;;
20230;SDS011;10274;49.022;9.338;2022-10-17T05:58:54;1.00;;;0.90;;
20230;SDS011;10274;49.022;9.338;2022-10-17T06:01:20;1.00;;;0.90;;
20230;SDS011;10274;49.022;9.338;2022-10-17T06:03:48;1.10;;;1.00;;
20230;SDS011;10274;49.022;9.338;2022-10-17T06:06:15;4.23;;;2.80;;
20230;SDS011;10274;49.022;9.338;2022-10-17T06:08:43;4.17;;;3.27;;
20230;SDS011;10274;49.022;9.338;2022-10-17T06:11:10;6.37;;;3.80;;
20230;SDS011;10274;49.022;9.338;2022-10-17T06:13:38;3.20;;;2.50;;
20230;SDS011;10274;49.022;9.338;2022-10-17T06:16:06;3.33;;;2.00;;
20230;SDS011;10274;49.022;9.338;2022-10-17T06:18:34;1.90;;;1.77;;
20230;SDS011;10274;49.022;9.338;2022-10-17T06:21:01;5.93;;;3.13;;
20230;SDS011;10274;49.022;9.338;2022-10-17T06:23:28;5.73;;;3.10;;
20230;SDS011;10274;49.022;9.338;2022-10-17T06:25:56;3.43;;;2.93;;
20230;SDS011;10274;49.022;9.338;2022-10-17T06:28:24;4.33;;;3.43;;
20230;SDS011;10274;49.022;9.338;2022-10-17T06:30:52;4.10;;;3.20;;
20230;SDS011;10274;49.022;9.338;2022-10-17T06:33:19;4.27;;;2.70;;
20230;SDS011;10274;49.022;9.338;2022-10-17T06:35:49;3.57;;;2.70;;
20230;SDS011;10274;49.022;9.338;2022-10-17T06:38:16;3.80;;;2.90;;
20230;SDS011;10274;49.022;9.338;2022-10-17T06:40:43;5.00;;;3.20;;
20230;SDS011;10274;49.022;9.338;2022-10-17T06:43:10;4.67;;;2.50;;
20230;SDS011;10274;49.022;9.338;2022-10-17T06:45:37;2.70;;;2.40;;
20230;SDS011;10274;49.022;9.338;2022-10-17T06:48:05;3.73;;;2.33;;
20230;SDS011;10274;49.022;9.338;2022-10-17T06:50:32;1.90;;;1.70;;
20230;SDS011;10274;49.022;9.338;2022-10-17T06:53:00;1.47;;;1.20;;
20230;SDS011;10274;49.022;9.338;2022-10-17T06:55:26;1.60;;;1.37;;
20230;SDS011;10274;49.022;9.338;2022-10-17T06:57:53;1.43;;;1.33;;
20230;SDS011;10274;49.022;9.338;2022-10-17T07:00:20;2.37;;;1.60;;
20230;SDS011;10274;49.022;9.338;2022-10-17T07:02:47;2.43;;;1.90;;
20230;SDS011;10274;49.022;9.338;2022-10-17T07:05:15;2.00;;;1.50;;
20230;SDS011;10274;49.022;9.338;2022-10-17T07:07:43;7.80;;;4.30;;
20230;SDS011;10274;49.022;9.338;2022-10-17T07:10:10;4.20;;;3.50;;
20230;SDS011;10274;49.022;9.338;2022-10-17T07:12:36;4.30;;;1.23;;
20230;SDS011;10274;49.022;9.338;2022-10-17T07:15:03;2.13;;;1.33;;
20230;SDS011;10274;49.022;9.338;2022-10-17T07:17:30;1.97;;;1.30;;
20230;SDS011;10274;49.022;9.338;2022-10-17T07:19:57;2.20;;;1.07;;
20230;SDS011;10274;49.022;9.338;2022-10-17T07:22:25;1.00;;;0.90;;
20230;SDS011;10274;49.022;9.338;2022-10-17T07:24:52;1.23;;;1.13;;
20230;SDS011;10274;49.022;9.338;2022-10-17T07:27:19;1.37;;;1.10;;
20230;SDS011;10274;49.022;9.338;2022-10-17T07:29:46;1.70;;;1.10;;
20230;SDS011;10274;49.022;9.338;2022-10-17T07:32:12;1.20;;;1.10;;
20230;SDS011;10274;49.022;9.338;2022-10-17T07:34:39;1.50;;;1.17;;
20230;SDS011;10274;49.022;9.338;2022-10-17T07:37:06;1.57;;;1.10;;
20230;SDS011;10274;49.022;9.338;2022-10-17T07:39:35;0.70;;;0.70;;
20230;SDS011;10274;49.022;9.338;2022-10-17T07:42:03;1.50;;;1.10;;
20230;SDS011;10274;49.022;9.338;2022-10-17T07:44:31;2.60;;;1.00;;
20230;SDS011;10274;49.022;9.338;2022-10-17T07:46:59;0.80;;;0.67;;
20230;SDS011;10274;49.022;9.338;2022-10-17T07:49:26;1.23;;;1.10;;
20230;SDS011;10274;49.022;9.338;2022-10-17T07:51:53;3.13;;;1.20;;
20230;SDS011;10274;49.022;9.338;2022-10-17T07:54:20;1.10;;;1.00;;
20230;SDS011;10274;49.022;9.338;2022-10-17T07:56:48;1.37;;;0.77;;
20230;SDS011;10274;49.022;9.338;2022-10-17T07:59:15;1.20;;;1.10;;
20230;SDS011;10274;49.022;9.338;2022-10-17T08:01:42;1.10;;;0.90;;
20230;SDS011;10274;49.022;9.338;2022-10-17T08:04:09;0.70;;;0.70;;
20230;SDS011;10274;49.022;9.338;2022-10-17T08:06:36;0.90;;;0.80;;
20230;SDS011;10274;49.022;9.338;2022-10-17T08:09:03;1.57;;;1.47;;
20230;SDS011;10274;49.022;9.338;2022-10-17T08:11:29;1.20;;;1.10;;
20230;SDS011;10274;49.022;9.338;2022-10-17T08:13:57;1.83;;;1.40;;
20230;SDS011;10274;49.022;9.338;2022-10-17T08:16:24;1.20;;;1.10;;
20230;SDS011;10274;49.022;9.338;2022-10-17T08:18:51;1.30;;;1.20;;
20230;SDS011;10274;49.022;9.338;2022-10-17T08:21:18;0.70;;;0.70;;
20230;SDS011;10274;49.022;9.338;2022-10-17T08:23:45;0.50;;;0.50;;
20230;SDS011;10274;49.022;9.338;2022-10-17T08:26:11;0.70;;;0.70;;
20230;SDS011;10274;49.022;9.338;2022-10-17T08:28:41;1.40;;;1.30;;
20230;SDS011;10274;49.022;9.338;2022-10-17T08:31:10;1.77;;;1.33;;
20230;SDS011;10274;49.022;9.338;2022-10-17T08:33:38;1.53;;;1.13;;
20230;SDS011;10274;49.022;9.338;2022-10-17T08:36:06;4.47;;;2.20;;
20230;SDS011;10274;49.022;9.338;2022-10-17T08:38:34;1.23;;;1.10;;
20230;SDS011;10274;49.022;9.338;2022-10-17T08:41:02;0.80;;;0.80;;
20230;SDS011;10274;49.022;9.338;2022-10-17T08:43:34;1.10;;;1.00;;
20230;SDS011;10274;49.022;9.338;2022-10-17T08:46:12;0.73;;;0.60;;
20230;SDS011;10274;49.022;9.338;2022-10-17T08:48:40;2.40;;;1.43;;
20230;SDS011;10274;49.022;9.338;2022-10-17T08:51:10;1.00;;;0.83;;
20230;SDS011;10274;49.022;9.338;2022-10-17T08:53:42;1.10;;;1.00;;
20230;SDS011;10274;49.022;9.338;2022-10-17T08:56:15;3.80;;;1.77;;
20230;SDS011;10274;49.022;9.338;2022-10-17T08:58:44;1.13;;;1.03;;
20230;SDS011;10274;49.022;9.338;2022-10-17T09:01:13;1.50;;;1.23;;
20230;SDS011;10274;49.022;9.338;2022-10-17T09:04:08;0.80;;;0.80;;
20230;SDS011;10274;49.022;9.338;2022-10-17T09:06:52;1.27;;;0.90;;
20230;SDS011;10274;49.022;9.338;2022-10-17T09:09:26;0.70;;;0.70;;
20230;SDS011;10274;49.022;9.338;2022-10-17T09:12:09;0.80;;;0.80;;
20230;SDS011;10274;49.022;9.338;2022-10-17T09:14:44;0.93;;;0.90;;
20230;SDS011;10274;49.022;9.338;2022-10-17T09:17:27;0.80;;;0.60;;
20230;SDS011;10274;49.022;9.338;2022-10-17T09:20:04;0.90;;;0.80;;
20230;SDS011;10274;49.022;9.338;2022-10-17T09:22:37;1.77;;;1.05;;
20230;SDS011;10274;49.022;9.338;2022-10-17T09:25:10;0.77;;;0.70;;
20230;SDS011;10274;49.022;9.338;2022-10-17T09:27:41;0.80;;;0.80;;
20230;SDS011;10274;49.022;9.338;2022-10-17T09:30:22;0.80;;;0.60;;
20230;SDS011;10274;49.022;9.338;2022-10-17T09:32:55;0.55;;;0.55;;
20230;SDS011;10274;49.022;9.338;2022-10-17T09:35:22;1.08;;;0.63;;
20230;SDS011;10274;49.022;9.338;2022-10-17T09:37:50;0.45;;;0.45;;
20230;SDS011;10274;49.022;9.338;2022-10-17T09:40:18;0.77;;;0.70;;
20230;SDS011;10274;49.022;9.338;2022-10-17T09:42:49;0.50;;;0.50;;
20230;SDS011;10274;49.022;9.338;2022-10-17T09:45:17;3.65;;;0.82;;
20230;SDS011;10274;49.022;9.338;2022-10-17T09:47:49;2.63;;;0.80;;
20230;SDS011;10274;49.022;9.338;2022-10-17T09:50:26;0.50;;;0.50;;
20230;SDS011;10274;49.022;9.338;2022-10-17T09:52:55;0.80;;;0.80;;
20230;SDS011;10274;49.022;9.338;2022-10-17T09:55:29;0.45;;;0.45;;
20230;SDS011;10274;49.022;9.338;2022-10-17T09:58:03;0.82;;;0.82;;
20230;SDS011;10274;49.022;9.338;2022-10-17T10:00:31;0.80;;;0.80;;
20230;SDS011;10274;49.022;9.338;2022-10-17T10:03:08;0.60;;;0.60;;
20230;SDS011;10274;49.022;9.338;2022-10-17T10:05:40;0.50;;;0.50;;
20230;SDS011;10274;49.022;9.338;2022-10-17T10:08:22;0.65;;;0.65;;
20230;SDS011;10274;49.022;9.338;2022-10-17T10:10:56;0.88;;;0.88;;
20230;SDS011;10274;49.022;9.338;2022-10-17T10:13:27;0.50;;;0.50;;
20230;SDS011;10274;49.022;9.338;2022-10-17T10:15:54;0.65;;;0.60;;
20230;SDS011;10274;49.022;9.338;2022-10-17T10:18:40;0.60;;;0.60;;
20230;SDS011;10274;49.022;9.338;2022-10-17T10:21:09;0.68;;;0.68;;
20230;SDS011;10274;49.022;9.338;2022-10-17T10:23:37;0.50;;;0.50;;
20230;SDS011;10274;49.022;9.338;2022-10-17T10:26:14;0.57;;;0.57;;
20230;SDS011;10274;49.022;9.338;2022-10-17T10:28:56;0.55;;;0.55;;
20230;SDS011;10274;49.022;9.338;2022-10-17T10:31:26;1.10;;;0.40;;
20230;SDS011;10274;49.022;9.338;2022-10-17T10:33:57;0.60;;;0.60;;
20230;SDS011;10274;49.022;9.338;2022-10-17T10:36:40;0.88;;;0.70;;
20230;SDS011;10274;49.022;9.338;2022-10-17T10:39:19;0.85;;;0.80;;
20230;SDS011;10274;49.022;9.338;2022-10-17T10:41:51;0.57;;;0.50;;
20230;SDS011;10274;49.022;9.338;2022-10-17T10:44:19;0.60;;;0.60;;
20230;SDS011;10274;49.022;9.338;2022-10-17T10:47:04;0.60;;;0.60;;
20230;SDS011;10274;49.022;9.338;2022-10-17T10:49:33;0.52;;;0.50;;
20230;SDS011;10274;49.022;9.338;2022-10-17T10:52:00;0.60;;;0.60;;
20230;SDS011;10274;49.022;9.338;2022-10-17T10:54:31;0.75;;;0.73;;
20230;SDS011;10274;49.022;9.338;2022-10-17T10:57:03;1.08;;;0.75;;
20230;SDS011;10274;49.022;9.338;2022-10-17T10:59:34;1.10;;;0.90;;
20230;SDS011;10274;49.022;9.338;2022-10-17T11:02:09;1.02;;;0.80;;
20230;SDS011;10274;49.022;9.338;2022-10-17T11:04:42;0.85;;;0.60;;
20230;SDS011;10274;49.022;9.338;2022-10-17T11:07:12;0.70;;;0.70;;
20230;SDS011;10274;49.022;9.338;2022-10-17T11:09:45;0.77;;;0.70;;
20230;SDS011;10274;49.022;9.338;2022-10-17T11:12:17;1.02;;;0.70;;
20230;SDS011;10274;49.022;9.338;2022-10-17T11:14:48;0.50;;;0.50;;
20230;SDS011;10274;49.022;9.338;2022-10-17T11:17:21;0.90;;;0.80;;
20230;SDS011;10274;49.022;9.338;2022-10-17T11:19:58;0.82;;;0.60;;
20230;SDS011;10274;49.022;9.338;2022-10-17T11:22:33;0.70;;;0.70;;
20230;SDS011;10274;49.022;9.338;2022-10-17T11:25:03;0.80;;;0.80;;
20230;SDS011;10274;49.022;9.338;2022-10-17T11:27:31;0.60;;;0.60;;
20230;SDS011;10274;49.022;9.338;2022-10-17T11:29:59;0.40;;;0.40;;
20230;SDS011;10274;49.022;9.338;2022-10-17T11:32:28;0.50;;;0.50;;
20230;SDS011;10274;49.022;9.338;2022-10-17T11:35:04;0.95;;;0.82;;
20230;SDS011;10274;49.022;9.338;2022-10-17T11:37:40;0.50;;;0.50;;
20230;SDS011;10274;49.022;9.338;2022-10-17T11:40:14;0.55;;;0.50;;
20230;SDS011;10274;49.022;9.338;2022-10-17T11:42:46;1.73;;;0.77;;
20230;SDS011;10274;49.022;9.338;2022-10-17T11:45:18;0.70;;;0.70;;
20230;SDS011;10274;49.022;9.338;2022-10-17T11:47:49;0.77;;;0.50;;
20230;SDS011;10274;49.022;9.338;2022-10-17T11:50:21;0.47;;;0.47;;
20230;SDS011;10274;49.022;9.338;2022-10-17T11:52:51;0.90;;;0.80;;
20230;SDS011;10274;49.022;9.338;2022-10-17T11:55:22;0.63;;;0.60;;
20230;SDS011;10274;49.022;9.338;2022-10-17T11:57:53;0.45;;;0.45;;
20230;SDS011;10274;49.022;9.338;2022-10-17T12:00:35;0.80;;;0.50;;
20230;SDS011;10274;49.022;9.338;2022-10-17T12:03:20;0.70;;;0.70;;
20230;SDS011;10274;49.022;9.338;2022-10-17T12:05:56;1.00;;;0.90;;
20230;SDS011;10274;49.022;9.338;2022-10-17T12:08:29;0.43;;;0.43;;
20230;SDS011;10274;49.022;9.338;2022-10-17T12:11:02;0.65;;;0.65;;
20230;SDS011;10274;49.022;9.338;2022-10-17T12:13:51;0.90;;;0.60;;
20230;SDS011;10274;49.022;9.338;2022-10-17T12:19:27;1.30;;;1.10;;
20230;SDS011;10274;49.022;9.338;2022-10-17T12:22:02;0.63;;;0.50;;
20230;SDS011;10274;49.022;9.338;2022-10-17T12:24:38;0.70;;;0.70;;
20230;SDS011;10274;49.022;9.338;2022-10-17T12:30:03;1.48;;;0.73;;
20230;SDS011;10274;49.022;9.338;2022-10-17T12:32:32;0.73;;;0.73;;
20230;SDS011;10274;49.022;9.338;2022-10-17T12:34:59;1.38;;;0.85;;
20230;SDS011;10274;49.022;9.338;2022-10-17T12:52:14;0.70;;;0.70;;
20230;SDS011;10274;49.022;9.338;2022-10-17T12:55:00;0.85;;;0.80;;
20230;SDS011;10274;49.022;9.338;2022-10-17T12:57:37;1.17;;;0.85;;
20230;SDS011;10274;49.022;9.338;2022-10-17T13:00:18;1.33;;;0.90;;
20230;SDS011;10274;49.022;9.338;2022-10-17T13:02:48;0.70;;;0.63;;
20230;SDS011;10274;49.022;9.338;2022-10-17T13:05:20;1.63;;;1.42;;
20230;SDS011;10274;49.022;9.338;2022-10-17T13:07:52;0.65;;;0.65;;
20230;SDS011;10274;49.022;9.338;2022-10-17T13:10:23;0.35;;;0.35;;
20230;SDS011;10274;49.022;9.338;2022-10-17T13:12:52;0.68;;;0.60;;
20230;SDS011;10274;49.022;9.338;2022-10-17T13:15:26;0.95;;;0.90;;
20230;SDS011;10274;49.022;9.338;2022-10-17T13:17:56;0.80;;;0.80;;
20230;SDS011;10274;49.022;9.338;2022-10-17T13:20:25;0.85;;;0.85;;
20230;SDS011;10274;49.022;9.338;2022-10-17T13:22:54;0.65;;;0.65;;
20230;SDS011;10274;49.022;9.338;2022-10-17T13:25:23;1.40;;;1.00;;
20230;SDS011;10274;49.022;9.338;2022-10-17T13:27:58;0.70;;;0.70;;
20230;SDS011;10274;49.022;9.338;2022-10-17T13:30:36;1.58;;;0.90;;
20230;SDS011;10274;49.022;9.338;2022-10-17T13:33:14;0.77;;;0.70;;
20230;SDS011;10274;49.022;9.338;2022-10-17T13:35:58;0.77;;;0.77;;
20230;SDS011;10274;49.022;9.338;2022-10-17T13:38:28;1.10;;;1.00;;
20230;SDS011;10274;49.022;9.338;2022-10-17T13:40:58;0.70;;;0.70;;
20230;SDS011;10274;49.022;9.338;2022-10-17T13:43:27;0.90;;;0.90;;
20230;SDS011;10274;49.022;9.338;2022-10-17T13:45:56;0.77;;;0.77;;
20230;SDS011;10274;49.022;9.338;2022-10-17T13:48:29;0.75;;;0.75;;
20230;SDS011;10274;49.022;9.338;2022-10-17T13:50:58;0.60;;;0.60;;
20230;SDS011;10274;49.022;9.338;2022-10-17T13:53:28;1.00;;;0.90;;
20230;SDS011;10274;49.022;9.338;2022-10-17T13:55:59;1.05;;;0.90;;
20230;SDS011;10274;49.022;9.338;2022-10-17T13:58:31;0.73;;;0.70;;
20230;SDS011;10274;49.022;9.338;2022-10-17T14:01:05;0.88;;;0.70;;
20230;SDS011;10274;49.022;9.338;2022-10-17T14:03:32;1.10;;;1.00;;
20230;SDS011;10274;49.022;9.338;2022-10-17T14:06:04;1.08;;;0.85;;
20230;SDS011;10274;49.022;9.338;2022-10-17T14:08:34;3.53;;;1.15;;
20230;SDS011;10274;49.022;9.338;2022-10-17T14:11:07;0.88;;;0.80;;
20230;SDS011;10274;49.022;9.338;2022-10-17T14:13:39;0.75;;;0.75;;
20230;SDS011;10274;49.022;9.338;2022-10-17T14:16:08;0.63;;;0.63;;
20230;SDS011;10274;49.022;9.338;2022-10-17T14:18:35;0.65;;;0.65;;
20230;SDS011;10274;49.022;9.338;2022-10-17T14:21:03;1.38;;;1.05;;
20230;SDS011;10274;49.022;9.338;2022-10-17T14:23:32;0.52;;;0.52;;
20230;SDS011;10274;49.022;9.338;2022-10-17T14:26:11;0.60;;;0.57;;
20230;SDS011;10274;49.022;9.338;2022-10-17T14:28:41;0.70;;;0.70;;
20230;SDS011;10274;49.022;9.338;2022-10-17T14:31:20;0.95;;;0.95;;
20230;SDS011;10274;49.022;9.338;2022-10-17T14:33:54;0.68;;;0.68;;
20230;SDS011;10274;49.022;9.338;2022-10-17T14:36:29;0.73;;;0.68;;
20230;SDS011;10274;49.022;9.338;2022-10-17T14:38:58;0.47;;;0.47;;
20230;SDS011;10274;49.022;9.338;2022-10-17T14:41:27;0.70;;;0.70;;
20230;SDS011;10274;49.022;9.338;2022-10-17T14:43:58;0.82;;;0.75;;
20230;SDS011;10274;49.022;9.338;2022-10-17T14:46:26;0.95;;;0.73;;
20230;SDS011;10274;49.022;9.338;2022-10-17T14:48:54;0.70;;;0.70;;
20230;SDS011;10274;49.022;9.338;2022-10-17T14:51:23;0.77;;;0.77;;
20230;SDS011;10274;49.022;9.338;2022-10-17T14:54:03;0.63;;;0.60;;
20230;SDS011;10274;49.022;9.338;2022-10-17T14:56:43;0.75;;;0.75;;
20230;SDS011;10274;49.022;9.338;2022-10-17T14:59:15;0.60;;;0.60;;
20230;SDS011;10274;49.022;9.338;2022-10-17T15:01:46;1.25;;;1.15;;
20230;SDS011;10274;49.022;9.338;2022-10-17T15:04:13;0.65;;;0.65;;
20230;SDS011;10274;49.022;9.338;2022-10-17T15:06:40;0.50;;;0.50;;
20230;SDS011;10274;49.022;9.338;2022-10-17T15:09:08;1.00;;;0.77;;
20230;SDS011;10274;49.022;9.338;2022-10-17T15:11:35;1.02;;;0.98;;
20230;SDS011;10274;49.022;9.338;2022-10-17T15:14:03;0.63;;;0.55;;
20230;SDS011;10274;49.022;9.338;2022-10-17T15:16:30;1.35;;;1.25;;
20230;SDS011;10274;49.022;9.338;2022-10-17T15:18:59;0.80;;;0.60;;
20230;SDS011;10274;49.022;9.338;2022-10-17T15:21:26;1.20;;;1.10;;
20230;SDS011;10274;49.022;9.338;2022-10-17T15:23:54;0.70;;;0.70;;
20230;SDS011;10274;49.022;9.338;2022-10-17T15:26:23;0.50;;;0.50;;
20230;SDS011;10274;49.022;9.338;2022-10-17T15:28:51;0.60;;;0.52;;
20230;SDS011;10274;49.022;9.338;2022-10-17T15:31:21;1.50;;;1.40;;
20230;SDS011;10274;49.022;9.338;2022-10-17T15:33:49;0.70;;;0.57;;